createdAt,value
2022-07-30T00:00:01.283Z,17.48
2022-07-30T00:03:03.857Z,17.39
2022-07-30T00:06:06.030Z,17.52
2022-07-30T00:09:10.134Z,17.49
2022-07-30T00:12:12.163Z,17.49
2022-07-30T00:15:14.812Z,17.45
2022-07-30T00:18:17.025Z,17.41
2022-07-30T00:21:20.310Z,17.44
2022-07-30T00:24:38.703Z,17.49
2022-07-30T00:27:41.003Z,17.44
2022-07-30T00:30:43.082Z,17.50
2022-07-30T00:33:45.433Z,17.50
2022-07-30T00:36:47.677Z,17.50
2022-07-30T00:39:50.458Z,17.50
2022-07-30T00:42:52.501Z,17.49
2022-07-30T00:45:54.809Z,17.49
2022-07-30T00:48:56.903Z,17.52
2022-07-30T00:51:59.170Z,17.53
2022-07-30T00:55:01.491Z,17.48
2022-07-30T00:58:03.773Z,17.43
2022-07-30T01:01:06.225Z,17.48
2022-07-30T01:04:11.605Z,17.50
2022-07-30T01:07:13.702Z,17.47
2022-07-30T01:10:16.248Z,17.52
2022-07-30T01:13:18.494Z,17.53
2022-07-30T01:16:21.385Z,17.55
2022-07-30T01:19:45.372Z,17.62
2022-07-30T01:23:12.522Z,17.58
2022-07-30T01:26:17.678Z,17.64
2022-07-30T01:29:20.619Z,17.68
2022-07-30T01:32:24.063Z,17.69
2022-07-30T01:35:28.258Z,17.80
2022-07-30T01:38:35.173Z,17.73
2022-07-30T01:41:38.763Z,17.79
2022-07-30T01:44:42.516Z,17.76
2022-07-30T01:47:45.543Z,17.67
2022-07-30T01:50:51.552Z,17.68
2022-07-30T01:53:55.834Z,17.70
2022-07-30T01:56:59.757Z,17.73
2022-07-30T02:00:05.998Z,17.76
2022-07-30T02:03:18.574Z,17.78
2022-07-30T02:06:22.854Z,17.76
2022-07-30T02:09:34.729Z,17.80
2022-07-30T02:12:53.963Z,17.86
2022-07-30T02:16:07.027Z,17.84
2022-07-30T02:19:13.993Z,17.82
2022-07-30T02:22:17.938Z,17.77
2022-07-30T02:25:21.761Z,17.78
2022-07-30T02:28:25.134Z,17.73
2022-07-30T02:31:28.555Z,17.75
2022-07-30T02:34:34.072Z,17.77
2022-07-30T02:37:39.226Z,17.80
2022-07-30T02:40:45.903Z,17.84
2022-07-30T02:43:48.691Z,17.85
2022-07-30T02:46:52.651Z,17.80
2022-07-30T02:50:14.522Z,17.87
2022-07-30T02:53:18.551Z,17.83
2022-07-30T02:56:22.893Z,17.79
2022-07-30T02:59:29.260Z,17.84
2022-07-30T03:02:33.743Z,17.81
2022-07-30T03:05:36.447Z,17.79
2022-07-30T03:08:41.305Z,17.81
2022-07-30T03:11:44.839Z,17.82
2022-07-30T03:14:47.674Z,17.84
2022-07-30T03:17:53.284Z,17.83
2022-07-30T03:20:57.276Z,17.73
2022-07-30T03:24:00.309Z,17.74
2022-07-30T03:27:04.117Z,17.87
2022-07-30T03:30:07.575Z,17.92
2022-07-30T03:33:12.289Z,17.89
2022-07-30T03:36:15.986Z,17.89
2022-07-30T03:39:18.574Z,17.85
2022-07-30T03:42:24.482Z,17.85
2022-07-30T03:45:27.469Z,17.90
2022-07-30T03:48:36.966Z,17.91
2022-07-30T03:51:39.590Z,17.89
2022-07-30T03:54:41.833Z,17.91
2022-07-30T03:58:11.742Z,17.91
2022-07-30T04:01:14.017Z,17.94
2022-07-30T04:04:17.251Z,17.84
2022-07-30T04:07:19.273Z,17.85
2022-07-30T04:10:21.508Z,17.88
2022-07-30T04:13:32.751Z,17.87
2022-07-30T04:16:42.108Z,17.85
2022-07-30T04:19:52.196Z,17.92
2022-07-30T04:22:58.092Z,17.93
2022-07-30T04:26:01.939Z,17.96
2022-07-30T04:29:07.544Z,18.00
2022-07-30T04:32:11.760Z,18.01
2022-07-30T04:35:50.826Z,18.18
2022-07-30T04:39:11.763Z,18.23
2022-07-30T04:42:19.862Z,18.19
2022-07-30T04:45:31.683Z,18.20
2022-07-30T04:48:36.052Z,18.19
2022-07-30T04:51:49.269Z,18.27
2022-07-30T04:54:57.001Z,18.25
2022-07-30T04:58:00.112Z,18.34
2022-07-30T05:01:07.188Z,18.42
2022-07-30T05:04:10.858Z,18.57
2022-07-30T05:07:14.561Z,18.53
2022-07-30T05:10:17.904Z,18.47
2022-07-30T05:13:20.495Z,18.56
2022-07-30T05:16:25.152Z,18.53
2022-07-30T05:19:30.706Z,18.50
2022-07-30T05:22:32.929Z,18.50
2022-07-30T05:25:35.200Z,18.54
2022-07-30T05:28:55.047Z,18.54
2022-07-30T05:32:03.808Z,18.44
2022-07-30T05:35:10.632Z,18.51
2022-07-30T05:38:13.332Z,18.54
2022-07-30T05:41:34.004Z,18.59
2022-07-30T05:44:43.683Z,18.60
2022-07-30T05:47:46.214Z,18.69
2022-07-30T05:50:49.190Z,18.72
2022-07-30T05:53:51.864Z,18.59
2022-07-30T05:57:12.994Z,18.72
2022-07-30T06:00:16.077Z,18.75
2022-07-30T06:03:27.857Z,18.73
2022-07-30T06:06:52.894Z,18.91
2022-07-30T06:10:00.034Z,19.00
2022-07-30T06:13:02.823Z,19.08
2022-07-30T06:16:05.706Z,19.14
2022-07-30T06:19:09.375Z,19.13
2022-07-30T06:22:25.969Z,19.21
2022-07-30T06:25:30.545Z,19.20
2022-07-30T06:28:38.406Z,19.32
2022-07-30T06:31:49.307Z,19.30
2022-07-30T06:34:59.630Z,19.25
2022-07-30T06:38:07.222Z,19.34
2022-07-30T06:41:16.021Z,19.47
2022-07-30T06:44:29.059Z,19.53
2022-07-30T06:48:10.152Z,19.60
2022-07-30T06:51:12.230Z,19.68
2022-07-30T06:54:15.822Z,19.70
2022-07-30T06:57:40.406Z,19.54
2022-07-30T07:01:05.262Z,19.73
2022-07-30T07:04:13.860Z,19.68
2022-07-30T07:07:31.459Z,19.77
2022-07-30T07:10:38.759Z,19.92
2022-07-30T07:14:05.279Z,20.03
2022-07-30T07:17:11.454Z,20.05
2022-07-30T07:20:33.436Z,20.23
2022-07-30T07:23:41.894Z,20.27
2022-07-30T07:27:04.785Z,20.21
2022-07-30T07:30:18.587Z,20.27
2022-07-30T07:33:22.538Z,20.24
2022-07-30T07:36:24.664Z,20.33
2022-07-30T07:39:27.124Z,20.43
2022-07-30T07:42:30.120Z,20.35
2022-07-30T07:45:32.573Z,20.48
2022-07-30T07:48:40.052Z,20.57
2022-07-30T07:51:54.957Z,20.64
2022-07-30T07:54:58.334Z,20.69
2022-07-30T07:58:03.114Z,20.70
2022-07-30T08:01:07.895Z,20.94
2022-07-30T08:04:28.716Z,20.99
2022-07-30T08:07:49.396Z,21.05
2022-07-30T08:10:55.329Z,21.22
2022-07-30T08:14:15.696Z,21.21
2022-07-30T08:17:43.984Z,21.41
2022-07-30T08:20:51.540Z,21.71
2022-07-30T08:23:58.001Z,21.89
2022-07-30T08:27:00.729Z,22.08
2022-07-30T08:30:08.135Z,22.23
2022-07-30T08:33:10.416Z,21.99
2022-07-30T08:36:12.794Z,22.11
2022-07-30T08:39:14.846Z,22.21
2022-07-30T08:42:17.461Z,22.24
2022-07-30T08:45:19.777Z,22.21
2022-07-30T08:51:52.318Z,22.06
2022-07-30T08:55:13.686Z,21.98
2022-07-30T08:58:27.083Z,22.04
2022-07-30T09:01:29.516Z,21.90
2022-07-30T09:04:33.628Z,21.98
2022-07-30T09:07:36.896Z,21.99
2022-07-30T09:10:40.094Z,22.02
2022-07-30T09:13:55.193Z,22.10
2022-07-30T09:16:58.305Z,22.13
2022-07-30T09:20:05.442Z,22.26
2022-07-30T09:23:10.921Z,22.37
2022-07-30T09:26:33.456Z,22.46
2022-07-30T09:29:59.380Z,22.60
2022-07-30T09:33:32.083Z,22.70
2022-07-30T09:36:53.360Z,22.96
2022-07-30T09:39:59.624Z,23.33
2022-07-30T09:43:23.322Z,23.43
2022-07-30T09:46:48.175Z,23.49
2022-07-30T09:50:08.444Z,23.66
2022-07-30T09:53:12.097Z,23.92
2022-07-30T09:56:25.226Z,24.05
2022-07-30T09:59:34.751Z,24.21
2022-07-30T10:02:37.156Z,24.38
2022-07-30T10:05:59.884Z,24.28
2022-07-30T10:09:14.300Z,24.36
2022-07-30T10:12:25.935Z,24.50
2022-07-30T10:15:32.482Z,24.33
2022-07-30T10:18:36.096Z,24.32
2022-07-30T10:22:00.287Z,24.68
2022-07-30T10:25:28.057Z,24.64
2022-07-30T10:28:43.684Z,24.54
2022-07-30T10:31:54.199Z,24.56
2022-07-30T10:34:58.783Z,24.59
2022-07-30T10:38:01.517Z,24.57
2022-07-30T10:41:42.843Z,24.58
2022-07-30T10:45:02.191Z,24.56
2022-07-30T10:48:04.762Z,24.51
2022-07-30T10:51:08.165Z,24.38
2022-07-30T10:54:39.336Z,24.16
2022-07-30T10:58:08.380Z,24.24
2022-07-30T11:01:18.285Z,24.34
2022-07-30T11:04:25.814Z,24.36
2022-07-30T11:07:31.655Z,24.45
2022-07-30T11:10:44.072Z,24.40
2022-07-30T11:13:55.172Z,24.32
2022-07-30T11:17:01.229Z,24.19
2022-07-30T11:20:06.899Z,24.32
2022-07-30T11:23:20.388Z,24.29
2022-07-30T11:26:46.639Z,24.31
2022-07-30T11:29:51.266Z,24.38
2022-07-30T11:33:18.606Z,24.47
2022-07-30T11:36:21.210Z,24.56
2022-07-30T11:39:58.554Z,24.65
2022-07-30T11:43:36.205Z,24.71
2022-07-30T11:46:48.626Z,24.64
2022-07-30T11:49:51.374Z,24.57
2022-07-30T11:52:55.056Z,24.34
2022-07-30T11:55:59.177Z,24.21
2022-07-30T11:59:06.818Z,24.31
2022-07-30T12:02:09.314Z,24.20
2022-07-30T12:05:11.890Z,24.05
2022-07-30T12:08:35.160Z,23.94
2022-07-30T12:11:37.518Z,23.95
2022-07-30T12:14:40.121Z,24.11
2022-07-30T12:17:46.045Z,24.03
2022-07-30T12:20:54.236Z,23.98
2022-07-30T12:24:07.560Z,23.91
2022-07-30T12:27:10.300Z,23.71
2022-07-30T12:30:12.873Z,23.79
2022-07-30T12:33:15.268Z,23.75
2022-07-30T12:36:28.389Z,23.77
2022-07-30T12:39:30.587Z,23.69
2022-07-30T12:42:32.850Z,23.65
2022-07-30T12:45:52.324Z,23.61
2022-07-30T12:49:02.786Z,23.49
2022-07-30T12:52:31.015Z,23.42
2022-07-30T12:55:35.561Z,23.43
2022-07-30T12:58:38.412Z,23.37
2022-07-30T13:01:45.685Z,23.39
2022-07-30T13:05:03.138Z,23.20
2022-07-30T13:08:13.531Z,22.81
2022-07-30T13:11:17.406Z,22.94
2022-07-30T13:14:19.529Z,22.94
2022-07-30T13:17:28.906Z,22.71
2022-07-30T13:20:30.954Z,22.59
2022-07-30T13:23:35.778Z,22.45
2022-07-30T13:26:37.885Z,22.39
2022-07-30T13:29:40.155Z,22.35
2022-07-30T13:32:42.386Z,22.35
2022-07-30T13:35:44.648Z,22.31
2022-07-30T13:38:46.978Z,22.31
2022-07-30T13:41:54.590Z,22.27
2022-07-30T13:44:56.694Z,22.24
2022-07-30T13:47:59.403Z,22.26
2022-07-30T13:51:02.874Z,22.27
2022-07-30T13:54:05.214Z,22.30
2022-07-30T13:57:07.661Z,22.25
2022-07-30T14:00:11.009Z,22.31
2022-07-30T14:03:13.391Z,22.27
2022-07-30T14:06:15.646Z,22.15
2022-07-30T14:09:17.820Z,22.11
2022-07-30T14:12:20.154Z,22.01
2022-07-30T14:15:26.572Z,21.93
2022-07-30T14:18:29.872Z,21.98
2022-07-30T14:21:32.339Z,21.99
2022-07-30T14:24:34.554Z,21.98
2022-07-30T14:27:36.767Z,21.98
2022-07-30T14:30:39.055Z,21.96
2022-07-30T14:33:41.376Z,21.90
2022-07-30T14:36:43.760Z,21.89
2022-07-30T14:39:45.828Z,21.84
2022-07-30T14:42:48.271Z,21.87
2022-07-30T14:45:52.550Z,21.74
2022-07-30T14:48:54.910Z,21.65
2022-07-30T14:51:57.408Z,21.77
2022-07-30T14:54:59.694Z,21.75
2022-07-30T14:58:05.773Z,21.68
2022-07-30T15:01:15.648Z,21.62
2022-07-30T15:04:18.264Z,21.56
2022-07-30T15:07:20.548Z,21.48
2022-07-30T15:10:22.612Z,21.46
2022-07-30T15:13:26.883Z,21.31
2022-07-30T15:16:30.202Z,21.35
2022-07-30T15:19:32.917Z,21.34
2022-07-30T15:22:35.928Z,21.35
2022-07-30T15:25:38.267Z,21.33
2022-07-30T15:28:40.382Z,21.36
2022-07-30T15:31:42.749Z,21.31
2022-07-30T15:34:46.091Z,21.32
2022-07-30T15:37:48.947Z,21.31
2022-07-30T15:40:50.990Z,21.18
2022-07-30T15:43:53.295Z,21.05
2022-07-30T15:46:55.444Z,20.95
2022-07-30T15:49:57.804Z,20.77
2022-07-30T15:52:59.872Z,20.74
2022-07-30T15:56:02.105Z,20.72
2022-07-30T15:59:04.163Z,20.64
2022-07-30T16:02:06.689Z,20.53
2022-07-30T16:05:13.677Z,20.57
2022-07-30T16:08:17.106Z,20.52
2022-07-30T16:11:19.286Z,20.43
2022-07-30T16:14:22.599Z,20.45
2022-07-30T16:17:24.738Z,20.44
2022-07-30T16:20:26.947Z,20.38
2022-07-30T16:23:36.640Z,20.41
2022-07-30T16:26:39.212Z,20.45
2022-07-30T16:29:41.292Z,20.38
2022-07-30T16:32:43.558Z,20.42
2022-07-30T16:35:48.935Z,20.35
2022-07-30T16:38:53.406Z,20.30
2022-07-30T16:41:55.506Z,20.31
2022-07-30T16:44:57.750Z,20.31
2022-07-30T16:47:59.839Z,20.17
2022-07-30T16:51:02.177Z,20.13
2022-07-30T16:54:04.562Z,19.99
2022-07-30T16:57:10.583Z,19.81
2022-07-30T17:00:13.287Z,19.83
2022-07-30T17:03:19.950Z,19.87
2022-07-30T17:06:22.370Z,19.76
2022-07-30T17:09:24.640Z,19.72
2022-07-30T17:12:27.584Z,19.73
2022-07-30T17:15:32.952Z,19.71
2022-07-30T17:18:35.339Z,19.66
2022-07-30T17:21:38.279Z,19.65
2022-07-30T17:24:41.122Z,19.72
2022-07-30T17:27:43.384Z,19.68
2022-07-30T17:30:46.093Z,19.64
2022-07-30T17:33:48.761Z,19.62
2022-07-30T17:36:52.607Z,19.63
2022-07-30T17:40:26.947Z,19.54
2022-07-30T17:43:17.474Z,19.45
2022-07-30T17:46:19.727Z,19.40
2022-07-30T17:49:22.477Z,19.36
2022-07-30T17:52:26.443Z,19.36
2022-07-30T17:55:29.041Z,19.39
2022-07-30T17:58:31.440Z,19.32
2022-07-30T18:01:33.549Z,19.31
2022-07-30T18:04:36.068Z,19.25
2022-07-30T18:07:38.107Z,19.18
2022-07-30T18:10:40.531Z,19.23
2022-07-30T18:13:42.757Z,19.23
2022-07-30T18:16:45.277Z,19.19
2022-07-30T18:19:47.374Z,19.12
2022-07-30T18:22:51.452Z,19.10
2022-07-30T18:25:54.420Z,19.12
2022-07-30T18:28:57.051Z,19.18
2022-07-30T18:31:59.201Z,19.11
2022-07-30T18:35:01.588Z,19.17
2022-07-30T18:38:05.167Z,19.01
2022-07-30T18:41:07.533Z,19.04
2022-07-30T18:44:09.724Z,18.95
2022-07-30T18:47:12.059Z,18.93
2022-07-30T18:50:15.710Z,18.91
2022-07-30T18:53:18.086Z,18.81
2022-07-30T18:56:20.723Z,18.71
2022-07-30T18:59:23.101Z,18.60
2022-07-30T19:02:25.791Z,18.57
2022-07-30T19:05:28.528Z,18.54
2022-07-30T19:08:30.616Z,18.47
2022-07-30T19:11:33.483Z,18.44
2022-07-30T19:14:36.958Z,18.52
2022-07-30T19:17:45.118Z,18.45
2022-07-30T19:20:47.855Z,18.40
2022-07-30T19:23:50.146Z,18.40
2022-07-30T19:26:52.228Z,18.35
2022-07-30T19:29:54.561Z,18.37
2022-07-30T19:33:07.569Z,18.29
2022-07-30T19:36:11.485Z,18.13
2022-07-30T19:39:21.520Z,18.18
2022-07-30T19:42:26.064Z,18.11
2022-07-30T19:45:47.308Z,18.06
2022-07-30T19:48:50.530Z,18.12
2022-07-30T19:52:10.022Z,18.08
2022-07-30T19:55:30.452Z,18.02
2022-07-30T19:58:37.317Z,17.97
2022-07-30T20:01:40.333Z,17.87
2022-07-30T20:04:43.693Z,17.84
2022-07-30T20:07:47.677Z,17.76
2022-07-30T20:10:51.221Z,17.71
2022-07-30T20:13:53.553Z,17.66
2022-07-30T20:16:56.928Z,17.59
2022-07-30T20:20:06.480Z,17.59
2022-07-30T20:23:09.147Z,17.56
2022-07-30T20:26:14.938Z,17.64
2022-07-30T20:29:19.381Z,17.51
2022-07-30T20:32:23.768Z,17.62
2022-07-30T20:35:26.609Z,17.58
2022-07-30T20:38:29.566Z,17.63
2022-07-30T20:41:31.849Z,17.61
2022-07-30T20:44:39.488Z,17.64
2022-07-30T20:47:47.173Z,17.66
2022-07-30T20:50:50.312Z,17.70
2022-07-30T20:53:53.870Z,17.77
2022-07-30T20:56:56.413Z,17.73
2022-07-30T20:59:58.464Z,17.64
2022-07-30T21:03:03.134Z,17.45
2022-07-30T21:06:05.676Z,17.27
2022-07-30T21:09:09.292Z,17.16
2022-07-30T21:12:14.595Z,17.16
2022-07-30T21:15:23.689Z,17.16
2022-07-30T21:18:26.509Z,17.08
2022-07-30T21:21:41.831Z,17.09
2022-07-30T21:24:50.324Z,17.10
2022-07-30T21:27:52.672Z,17.05
2022-07-30T21:30:54.804Z,17.08
2022-07-30T21:34:00.120Z,17.14
2022-07-30T21:37:02.237Z,17.12
2022-07-30T21:40:06.425Z,17.05
2022-07-30T21:43:10.891Z,17.13
2022-07-30T21:46:14.641Z,17.21
2022-07-30T21:49:16.743Z,17.07
2022-07-30T21:52:19.125Z,17.13
2022-07-30T21:55:21.522Z,17.22
2022-07-30T21:58:26.109Z,17.24
2022-07-30T22:01:28.658Z,17.17
2022-07-30T22:04:35.311Z,17.16
2022-07-30T22:07:37.453Z,17.19
2022-07-30T22:10:42.089Z,17.27
2022-07-30T22:13:53.902Z,17.25
2022-07-30T22:16:57.115Z,17.35
2022-07-30T22:19:59.276Z,17.24
2022-07-30T22:23:03.157Z,17.28
2022-07-30T22:26:06.738Z,17.17
2022-07-30T22:29:11.978Z,17.11
2022-07-30T22:32:14.913Z,17.11
2022-07-30T22:35:17.254Z,17.05
2022-07-30T22:38:22.890Z,17.02
2022-07-30T22:41:25.202Z,17.05
2022-07-30T22:44:27.413Z,17.04
2022-07-30T22:47:51.300Z,17.07
2022-07-30T22:54:14.762Z,17.06
2022-07-30T22:57:17.120Z,16.98
2022-07-30T23:00:27.534Z,16.97
2022-07-30T23:03:30.512Z,16.78
2022-07-30T23:06:33.337Z,16.86
2022-07-30T23:12:30.621Z,17.09
2022-07-30T23:12:31.000Z,16.77
2022-07-30T23:12:57.913Z,16.81
2022-07-30T23:16:00.130Z,16.83
2022-07-30T23:19:03.242Z,16.77
2022-07-30T23:22:07.021Z,16.76
2022-07-30T23:25:10.657Z,16.76
2022-07-30T23:28:12.832Z,16.77
2022-07-30T23:31:15.446Z,16.76
2022-07-30T23:34:17.471Z,16.73
2022-07-30T23:37:20.156Z,16.72
2022-07-30T23:40:22.454Z,16.73
2022-07-30T23:43:24.855Z,16.72
2022-07-30T23:46:26.932Z,16.67
2022-07-30T23:49:29.194Z,16.71
2022-07-30T23:52:31.255Z,16.70
2022-07-30T23:55:33.559Z,16.64
2022-07-30T23:58:35.595Z,16.64
